Ship Status Report: callsign BDCJ

sailwx.info

Track history (hours):
 
Tides and Currents Weather Stations Pressure Air Temp Water Temp Dewpoint Dewpoint Depression Visibility Wind Speed Wind Dir Waves Ship Positions

Oceanographic research ship ()

Last reported at 2017-Aug-17 05:44 UTC. Time now 2017-Aug-20 03:45 UTC.
Position N 22°30' E 120°05'.

Type: Ship (hazmat cat C). MMSI: 404455160.

Date/timePositionNaut miles runAvg speedWind from/ knotsBaromVisibWave heightAir tempDewpointWater temp
2017-Aug-17 05:44N 22°30' E 120°05'2 9.8
2017-Aug-17 05:30N 22°32' E 120°07'5 9.9
2017-Aug-17 04:59N 22°36' E 120°10'4 8.2
2017-Aug-17 04:30N 22°38' E 120°14'  
2017-Aug-14 07:59N 22°37' E 120°17'0 0.1
2017-Aug-14 05:53N 22°37' E 120°17'1 3.9
2017-Aug-14 05:30N 22°37' E 120°15'3 6.7
2017-Aug-14 05:00N 22°35' E 120°13'5 9.9
2017-Aug-14 04:31N 22°30' E 120°15'  
Track history (hours):
 
Tides and Currents Weather Stations Pressure Air Temp Water Temp Dewpoint Dewpoint Depression Visibility Wind Speed Wind Dir Waves Ship Positions

Oceanographic research ship ()

Last reported at 2017-Aug-17 05:44 UTC. Time now 2017-Aug-20 03:45 UTC.
Position N 22°30' E 120°05'.

Type: Ship (hazmat cat C). MMSI: 404455160.

Date/timePositionNaut miles runAvg speedWind from/ knotsBaromVisibWave heightAir tempDewpointWater temp
2017-Aug-17 05:44N 22°30' E 120°05'2 9.8
2017-Aug-17 05:30N 22°32' E 120°07'5 9.9
2017-Aug-17 04:59N 22°36' E 120°10'4 8.2
2017-Aug-17 04:30N 22°38' E 120°14'  
2017-Aug-14 07:59N 22°37' E 120°17'0 0.1
2017-Aug-14 05:53N 22°37' E 120°17'1 3.9
2017-Aug-14 05:30N 22°37' E 120°15'3 6.7
2017-Aug-14 05:00N 22°35' E 120°13'5 9.9
2017-Aug-14 04:31N 22°30' E 120°15'  

Dump ship's entire track history